createdAt,value
2023-04-11T00:01:01.104Z,87.90
2023-04-11T00:03:30.114Z,87.73
2023-04-11T00:05:59.998Z,87.78
2023-04-11T00:08:28.999Z,87.47
2023-04-11T00:10:57.878Z,87.99
2023-04-11T00:13:26.781Z,87.90
2023-04-11T00:15:56.038Z,87.95
2023-04-11T00:18:25.828Z,89.15
2023-04-11T00:20:54.068Z,88.45
2023-04-11T00:23:24.092Z,88.28
2023-04-11T00:25:53.058Z,88.08
2023-04-11T00:28:21.778Z,88.16
2023-04-11T00:30:50.509Z,88.99
2023-04-11T00:33:18.799Z,88.29
2023-04-11T00:35:47.532Z,88.84
2023-04-11T00:38:15.965Z,88.89
2023-04-11T00:40:47.892Z,89.53
2023-04-11T00:43:16.305Z,89.62
2023-04-11T00:45:45.054Z,88.75
2023-04-11T00:48:13.567Z,89.44
2023-04-11T00:50:43.972Z,89.28
2023-04-11T00:53:13.356Z,89.56
2023-04-11T00:55:42.917Z,89.95
2023-04-11T00:58:12.590Z,90.14
2023-04-11T01:00:41.583Z,89.75
2023-04-11T01:03:10.907Z,90.59
2023-04-11T01:05:39.823Z,89.88
2023-04-11T01:08:10.472Z,89.96
2023-04-11T01:10:39.712Z,90.09
2023-04-11T01:13:08.476Z,89.57
2023-04-11T01:15:38.102Z,90.50
2023-04-11T01:18:09.014Z,90.36
2023-04-11T01:20:38.523Z,89.64
2023-04-11T01:23:08.661Z,89.85
2023-04-11T01:25:40.676Z,90.30
2023-04-11T01:28:10.009Z,90.05
2023-04-11T01:30:38.443Z,90.74
2023-04-11T01:33:07.112Z,90.83
2023-04-11T01:35:36.364Z,90.89
2023-04-11T01:38:06.412Z,90.33
2023-04-11T01:40:36.899Z,90.97
2023-04-11T01:43:05.558Z,90.54
2023-04-11T01:45:34.290Z,90.67
2023-04-11T01:48:09.162Z,91.23
2023-04-11T01:50:37.522Z,91.09
2023-04-11T01:53:06.392Z,90.72
2023-04-11T01:55:34.726Z,91.35
2023-04-11T01:58:04.443Z,90.43
2023-04-11T02:00:32.829Z,90.66
2023-04-11T02:03:02.128Z,90.84
2023-04-11T02:05:30.727Z,90.68
2023-04-11T02:07:59.110Z,90.68
2023-04-11T02:10:28.444Z,90.95
2023-04-11T02:12:57.217Z,90.73
2023-04-11T02:15:28.318Z,90.84
2023-04-11T02:17:57.428Z,90.55
2023-04-11T02:20:25.985Z,90.90
2023-04-11T02:22:54.664Z,90.58
2023-04-11T02:25:22.945Z,91.05
2023-04-11T02:27:56.560Z,90.38
2023-04-11T02:30:27.101Z,90.51
2023-04-11T02:32:56.471Z,91.31
2023-04-11T02:35:24.822Z,91.07
2023-04-11T02:37:53.124Z,91.12
2023-04-11T02:40:22.506Z,91.06
2023-04-11T02:42:53.201Z,91.50
2023-04-11T02:45:22.693Z,91.10
2023-04-11T02:47:52.852Z,91.37
2023-04-11T02:50:22.219Z,91.02
2023-04-11T02:52:51.058Z,91.64
2023-04-11T02:55:19.958Z,91.07
2023-04-11T02:57:48.401Z,91.47
2023-04-11T03:00:18.553Z,91.46
2023-04-11T03:02:47.104Z,91.14
2023-04-11T03:05:17.100Z,91.37
2023-04-11T03:07:47.070Z,91.74
2023-04-11T03:10:15.442Z,90.99
2023-04-11T03:12:43.819Z,91.56
2023-04-11T03:15:15.428Z,91.19
2023-04-11T03:17:43.928Z,91.67
2023-04-11T03:20:13.738Z,91.56
2023-04-11T03:22:43.656Z,92.14
2023-04-11T03:25:12.100Z,91.58
2023-04-11T03:27:40.727Z,91.43
2023-04-11T03:30:10.792Z,90.98
2023-04-11T03:32:39.427Z,91.50
2023-04-11T03:35:08.412Z,91.67
2023-04-11T03:37:37.978Z,91.14
2023-04-11T03:40:10.364Z,91.50
2023-04-11T03:42:38.807Z,91.72
2023-04-11T03:45:09.629Z,91.44
2023-04-11T03:47:38.902Z,91.04
2023-04-11T03:50:09.028Z,91.55
2023-04-11T03:52:38.067Z,91.97
2023-04-11T03:55:08.857Z,91.51
2023-04-11T03:57:38.033Z,91.70
2023-04-11T04:00:08.231Z,91.87
2023-04-11T04:02:37.310Z,92.04
2023-04-11T04:05:06.840Z,91.72
2023-04-11T04:07:35.296Z,91.01
2023-04-11T04:10:04.687Z,91.88
2023-04-11T04:12:36.109Z,92.29
2023-04-11T04:15:04.614Z,92.24
2023-04-11T04:17:33.004Z,91.70
2023-04-11T04:20:01.542Z,91.29
2023-04-11T04:22:32.312Z,91.95
2023-04-11T04:25:02.734Z,91.62
2023-04-11T04:27:31.120Z,92.73
2023-04-11T04:30:04.076Z,92.85
2023-04-11T04:32:33.095Z,92.45
2023-04-11T04:35:03.169Z,91.77
2023-04-11T04:37:41.709Z,91.92
2023-04-11T04:40:13.658Z,92.65
2023-04-11T04:42:43.217Z,92.51
2023-04-11T04:45:15.484Z,92.87
2023-04-11T04:47:44.166Z,92.34
2023-04-11T04:50:12.701Z,92.20
2023-04-11T04:52:41.188Z,91.87
2023-04-11T04:55:10.640Z,92.49
2023-04-11T04:57:38.895Z,93.06
2023-04-11T05:00:12.450Z,92.63
2023-04-11T05:02:42.263Z,92.53
2023-04-11T05:05:12.504Z,92.35
2023-04-11T05:07:40.936Z,92.82
2023-04-11T05:10:10.578Z,93.10
2023-04-11T05:12:38.931Z,92.55
2023-04-11T05:15:11.671Z,92.84
2023-04-11T05:17:42.752Z,93.32
2023-04-11T05:20:13.610Z,92.78
2023-04-11T05:22:42.311Z,92.29
2023-04-11T05:25:11.956Z,92.09
2023-04-11T05:27:40.552Z,92.79
2023-04-11T05:30:10.897Z,92.46
2023-04-11T05:32:39.484Z,93.06
2023-04-11T05:35:10.709Z,92.89
2023-04-11T05:37:39.008Z,93.16
2023-04-11T05:40:10.048Z,92.69
2023-04-11T05:42:38.388Z,93.01
2023-04-11T05:45:08.291Z,92.72
2023-04-11T05:47:36.765Z,92.86
2023-04-11T05:50:06.126Z,92.53
2023-04-11T05:52:36.288Z,91.89
2023-04-11T05:55:06.020Z,92.70
2023-04-11T05:57:34.330Z,93.16
2023-04-11T06:00:06.828Z,92.46
2023-04-11T06:02:35.238Z,91.77
2023-04-11T06:05:03.969Z,92.85
2023-04-11T06:07:33.723Z,92.68
2023-04-11T06:10:03.351Z,93.11
2023-04-11T06:12:31.666Z,92.27
2023-04-11T06:15:00.583Z,93.17
2023-04-11T06:17:29.327Z,92.26
2023-04-11T06:19:58.294Z,92.72
2023-04-11T06:22:27.184Z,92.73
2023-04-11T06:24:55.923Z,92.10
2023-04-11T06:27:26.993Z,92.07
2023-04-11T06:29:55.975Z,92.80
2023-04-11T06:32:25.941Z,92.07
2023-04-11T06:34:54.829Z,91.88
2023-04-11T06:37:24.992Z,92.84
2023-04-11T06:39:53.582Z,91.41
2023-04-11T06:42:22.314Z,92.01
2023-04-11T06:44:52.417Z,91.72
2023-04-11T06:47:21.297Z,91.97
2023-04-11T06:49:49.687Z,92.37
2023-04-11T06:52:18.470Z,91.51
2023-04-11T06:54:48.952Z,91.40
2023-04-11T06:57:18.168Z,91.52
2023-04-11T06:59:46.586Z,91.58
2023-04-11T07:02:16.878Z,91.56
2023-04-11T07:04:45.339Z,90.75
2023-04-11T07:07:13.666Z,91.36
2023-04-11T07:09:43.520Z,91.22
2023-04-11T07:12:11.841Z,90.41
2023-04-11T07:14:40.417Z,89.45
2023-04-11T07:17:08.662Z,89.47
2023-04-11T07:19:38.833Z,88.43
2023-04-11T07:22:07.700Z,88.39
2023-04-11T07:24:36.344Z,87.13
2023-04-11T07:27:04.936Z,87.82
2023-04-11T07:29:34.468Z,87.50
2023-04-11T07:32:02.860Z,88.12
2023-04-11T07:34:31.647Z,88.39
2023-04-11T07:37:01.674Z,88.08
2023-04-11T07:39:31.954Z,88.33
2023-04-11T07:42:00.530Z,88.57
2023-04-11T07:44:28.925Z,88.36
2023-04-11T07:46:57.906Z,86.66
2023-04-11T07:49:27.399Z,87.15
2023-04-11T07:51:56.111Z,87.65
2023-04-11T07:54:28.448Z,86.90
2023-04-11T07:56:57.878Z,87.20
2023-04-11T07:59:26.820Z,86.58
2023-04-11T08:02:01.386Z,85.70
2023-04-11T08:04:33.958Z,85.66
2023-04-11T08:07:02.530Z,85.88
2023-04-11T08:09:32.460Z,85.36
2023-04-11T08:12:01.756Z,85.02
2023-04-11T08:14:30.093Z,84.84
2023-04-11T08:16:58.613Z,83.96
2023-04-11T08:19:27.564Z,83.75
2023-04-11T08:21:56.446Z,83.48
2023-04-11T08:24:24.968Z,83.24
2023-04-11T08:26:54.980Z,82.94
2023-04-11T08:29:23.509Z,83.56
2023-04-11T08:31:52.140Z,83.83
2023-04-11T08:34:21.018Z,82.29
2023-04-11T08:36:49.936Z,81.98
2023-04-11T08:39:18.797Z,81.61
2023-04-11T08:41:47.559Z,80.67
2023-04-11T08:44:17.206Z,80.42
2023-04-11T08:46:45.765Z,80.39
2023-04-11T08:49:14.072Z,79.37
2023-04-11T08:51:45.174Z,78.75
2023-04-11T08:54:14.095Z,77.42
2023-04-11T08:56:43.951Z,76.92
2023-04-11T08:59:14.534Z,76.80
2023-04-11T09:01:44.639Z,75.82
2023-04-11T09:04:13.041Z,75.05
2023-04-11T09:06:43.350Z,74.73
2023-04-11T09:09:31.059Z,73.45
2023-04-11T09:11:59.978Z,73.35
2023-04-11T09:14:28.654Z,72.23
2023-04-11T09:17:01.364Z,70.79
2023-04-11T09:19:31.917Z,70.51
2023-04-11T09:22:02.458Z,70.27
2023-04-11T09:24:32.020Z,69.57
2023-04-11T09:27:13.140Z,70.90
2023-04-11T09:29:45.331Z,73.17
2023-04-11T09:32:33.686Z,74.24
2023-04-11T09:35:15.668Z,75.64
2023-04-11T09:37:49.019Z,76.70
2023-04-11T09:40:24.913Z,77.61
2023-04-11T09:42:59.391Z,78.13
2023-04-11T09:45:32.086Z,78.84
2023-04-11T09:48:03.786Z,78.45
2023-04-11T09:50:34.280Z,79.13
2023-04-11T09:53:03.254Z,80.67
2023-04-11T09:55:31.668Z,80.02
2023-04-11T09:58:00.757Z,80.43
2023-04-11T10:00:32.258Z,80.72
2023-04-11T10:03:00.944Z,79.85
2023-04-11T10:05:32.062Z,80.13
2023-04-11T10:08:05.952Z,79.86
2023-04-11T10:10:35.782Z,79.98
2023-04-11T10:13:04.576Z,80.25
2023-04-11T10:15:33.186Z,80.66
2023-04-11T10:18:10.266Z,79.92
2023-04-11T10:20:46.630Z,79.63
2023-04-11T10:23:16.652Z,79.45
2023-04-11T10:25:59.255Z,78.88
2023-04-11T10:28:39.262Z,79.51
2023-04-11T10:31:13.047Z,79.17
2023-04-11T10:34:12.758Z,79.00
2023-04-11T10:40:11.114Z,79.19
2023-04-11T10:42:42.600Z,79.65
2023-04-11T10:45:27.180Z,80.40
2023-04-11T10:48:07.934Z,79.73
2023-04-11T10:50:40.956Z,79.10
2023-04-11T10:53:14.482Z,79.35
2023-04-11T10:55:51.340Z,79.79
2023-04-11T10:58:22.354Z,80.05
2023-04-11T11:01:26.451Z,81.34
2023-04-11T11:04:06.624Z,81.44
2023-04-11T11:06:46.060Z,81.97
2023-04-11T11:09:23.640Z,82.89
2023-04-11T11:14:48.240Z,82.99
2023-04-11T11:17:17.794Z,82.96
2023-04-11T11:19:47.789Z,83.25
2023-04-11T11:22:17.213Z,82.33
2023-04-11T11:24:45.857Z,82.81
2023-04-11T11:27:21.323Z,83.19
2023-04-11T11:29:52.908Z,83.84
2023-04-11T11:32:28.929Z,84.46
2023-04-11T11:34:58.855Z,84.05
2023-04-11T11:37:28.070Z,84.68
2023-04-11T11:39:58.646Z,84.79
2023-04-11T11:42:28.016Z,84.08
2023-04-11T11:45:16.199Z,84.99
2023-04-11T11:47:45.125Z,84.64
2023-04-11T11:50:26.398Z,85.45
2023-04-11T11:52:55.094Z,85.06
2023-04-11T11:55:36.678Z,85.65
2023-04-11T11:58:05.867Z,85.60
2023-04-11T12:00:40.136Z,85.52
2023-04-11T12:03:10.872Z,85.17
2023-04-11T12:05:39.797Z,85.14
2023-04-11T12:08:09.042Z,85.48
2023-04-11T12:10:40.164Z,84.99
2023-04-11T12:13:18.000Z,84.94
2023-04-11T12:15:54.447Z,85.55
2023-04-11T12:18:25.113Z,84.67
2023-04-11T12:20:53.576Z,85.24
2023-04-11T12:23:22.646Z,84.58
2023-04-11T12:25:51.332Z,85.65
2023-04-11T12:28:20.055Z,84.70
2023-04-11T12:30:50.025Z,85.06
2023-04-11T12:33:18.575Z,84.88
2023-04-11T12:35:47.267Z,84.28
2023-04-11T12:38:17.856Z,82.89
2023-04-11T12:40:47.465Z,83.32
2023-04-11T12:43:15.941Z,83.21
2023-04-11T12:45:44.550Z,83.44
2023-04-11T12:48:14.452Z,83.46
2023-04-11T12:50:42.845Z,82.26
2023-04-11T12:53:11.229Z,81.60
2023-04-11T12:55:39.695Z,81.32
2023-04-11T12:58:09.574Z,81.49
2023-04-11T13:00:38.178Z,81.22
2023-04-11T13:03:07.005Z,79.76
2023-04-11T13:05:37.266Z,78.66
2023-04-11T13:08:05.910Z,77.98
2023-04-11T13:10:34.479Z,76.44
2023-04-11T13:13:11.878Z,74.78
2023-04-11T13:15:46.537Z,73.40
2023-04-11T13:18:14.873Z,73.46
2023-04-11T13:20:44.701Z,71.96
2023-04-11T13:23:14.878Z,70.09
2023-04-11T13:25:45.019Z,69.82
2023-04-11T13:28:13.722Z,68.64
2023-04-11T13:30:42.112Z,67.21
2023-04-11T13:33:10.561Z,66.86
2023-04-11T13:35:39.026Z,66.49
2023-04-11T13:38:11.121Z,66.92
2023-04-11T13:40:40.313Z,67.17
2023-04-11T13:43:08.696Z,66.83
2023-04-11T13:45:37.166Z,66.81
2023-04-11T13:48:06.012Z,67.29
2023-04-11T13:50:35.909Z,66.76
2023-04-11T13:53:04.493Z,66.16
2023-04-11T13:55:34.357Z,66.13
2023-04-11T13:58:02.752Z,65.33
2023-04-11T14:00:31.144Z,63.68
2023-04-11T14:03:00.853Z,62.64
2023-04-11T14:05:32.460Z,62.67
2023-04-11T14:08:01.057Z,59.36
2023-04-11T14:10:29.437Z,57.77
2023-04-11T14:12:59.841Z,59.21
2023-04-11T14:15:28.430Z,60.44
2023-04-11T14:17:57.970Z,61.10
2023-04-11T14:20:27.600Z,61.54
2023-04-11T14:22:57.853Z,61.40
2023-04-11T14:25:26.544Z,62.30
2023-04-11T14:27:55.797Z,62.41
2023-04-11T14:30:26.852Z,63.30
2023-04-11T14:32:56.440Z,63.20
2023-04-11T14:35:25.184Z,63.20
2023-04-11T14:37:53.588Z,63.65
2023-04-11T14:40:22.369Z,63.79
2023-04-11T14:42:51.190Z,63.27
2023-04-11T14:45:20.106Z,62.54
2023-04-11T14:47:50.260Z,61.30
2023-04-11T14:50:18.976Z,60.94
2023-04-11T14:52:53.518Z,58.19
2023-04-11T14:55:22.838Z,55.29
2023-04-11T14:57:54.647Z,54.05
2023-04-11T15:00:25.098Z,52.91
2023-04-11T15:02:57.543Z,49.66
2023-04-11T15:05:27.001Z,47.86
2023-04-11T15:07:56.157Z,47.56
2023-04-11T15:10:26.543Z,48.65
2023-04-11T15:12:55.312Z,48.66
2023-04-11T15:15:24.678Z,48.61
2023-04-11T15:18:22.326Z,47.62
2023-04-11T15:20:52.610Z,47.82
2023-04-11T15:23:22.164Z,47.78
2023-04-11T15:25:55.278Z,47.80
2023-04-11T15:28:24.646Z,47.53
2023-04-11T15:30:55.349Z,46.07
2023-04-11T15:33:25.413Z,45.48
2023-04-11T15:35:54.906Z,45.65
2023-04-11T15:38:23.808Z,46.06
2023-04-11T15:40:54.496Z,45.23
2023-04-11T15:43:23.967Z,44.40
2023-04-11T15:45:53.366Z,44.38
2023-04-11T15:48:21.973Z,42.69
2023-04-11T15:50:52.028Z,41.13
2023-04-11T15:53:21.250Z,40.22
2023-04-11T15:55:49.623Z,39.49
2023-04-11T15:58:18.203Z,38.55
2023-04-11T16:00:47.765Z,38.08
2023-04-11T16:03:16.774Z,37.74
2023-04-11T16:05:45.828Z,37.38
2023-04-11T16:08:16.007Z,36.63
2023-04-11T16:10:44.518Z,37.36
2023-04-11T16:13:13.041Z,36.80
2023-04-11T16:15:41.430Z,36.75
2023-04-11T16:18:09.795Z,36.08
2023-04-11T16:20:38.380Z,36.15
2023-04-11T16:23:07.024Z,35.79
2023-04-11T16:25:37.208Z,34.32
2023-04-11T16:28:05.837Z,33.67
2023-04-11T16:30:34.490Z,33.72
2023-04-11T16:33:02.943Z,33.94
2023-04-11T16:35:31.853Z,33.62
2023-04-11T16:38:00.703Z,33.94
2023-04-11T16:40:31.691Z,33.71
2023-04-11T16:43:01.480Z,33.57
2023-04-11T16:45:29.985Z,33.24
2023-04-11T16:47:58.543Z,32.09
2023-04-11T16:50:27.639Z,31.92
2023-04-11T16:52:57.753Z,31.55
2023-04-11T16:55:26.636Z,30.76
2023-04-11T16:57:55.290Z,30.92
2023-04-11T17:00:26.334Z,30.79
2023-04-11T17:02:56.078Z,30.31
2023-04-11T17:05:25.251Z,30.04
2023-04-11T17:07:53.676Z,31.03
2023-04-11T17:10:22.584Z,30.31
2023-04-11T17:12:51.224Z,30.12
2023-04-11T17:15:20.252Z,30.38
2023-04-11T17:17:50.046Z,30.91
2023-04-11T17:20:18.660Z,30.20
2023-04-11T17:22:47.285Z,30.43
2023-04-11T17:25:15.790Z,30.57
2023-04-11T17:27:44.453Z,30.54
2023-04-11T17:30:13.969Z,31.13
2023-04-11T17:32:42.380Z,30.82
2023-04-11T17:35:13.341Z,30.65
2023-04-11T17:37:41.813Z,31.00
2023-04-11T17:40:14.545Z,31.95
2023-04-11T17:42:43.366Z,32.07
2023-04-11T17:47:44.726Z,33.72
2023-04-11T17:50:15.886Z,34.50
2023-04-11T17:52:47.617Z,34.70
2023-04-11T17:55:18.889Z,35.44
2023-04-11T17:57:49.129Z,35.45
2023-04-11T18:00:23.519Z,36.44
2023-04-11T18:02:54.872Z,38.41
2023-04-11T18:05:27.852Z,39.47
2023-04-11T18:07:58.518Z,40.13
2023-04-11T18:10:29.392Z,40.92
2023-04-11T18:12:59.933Z,41.96
2023-04-11T18:15:29.414Z,42.89
2023-04-11T18:17:58.990Z,44.06
2023-04-11T18:20:29.302Z,44.37
2023-04-11T18:22:58.529Z,45.66
2023-04-11T18:25:27.691Z,46.16
2023-04-11T18:27:56.503Z,47.37
2023-04-11T18:30:25.315Z,48.10
2023-04-11T18:32:56.252Z,48.88
2023-04-11T18:35:28.093Z,49.47
2023-04-11T18:37:59.999Z,50.23
2023-04-11T18:40:29.580Z,50.90
2023-04-11T18:42:58.763Z,51.53
2023-04-11T18:45:27.779Z,52.11
2023-04-11T18:47:57.297Z,53.02
2023-04-11T18:50:27.868Z,53.27
2023-04-11T18:53:04.186Z,54.14
2023-04-11T18:55:34.999Z,54.52
2023-04-11T18:58:05.583Z,54.96
2023-04-11T19:00:36.320Z,56.34
2023-04-11T19:03:05.381Z,57.12
2023-04-11T19:05:34.538Z,57.83
2023-04-11T19:08:04.928Z,57.58
2023-04-11T19:10:33.560Z,59.09
2023-04-11T19:13:02.281Z,59.37
2023-04-11T19:15:31.454Z,60.34
2023-04-11T19:18:01.861Z,59.77
2023-04-11T19:20:30.610Z,60.32
2023-04-11T19:22:59.298Z,61.78
2023-04-11T19:25:29.741Z,61.91
2023-04-11T19:28:05.051Z,61.53
2023-04-11T19:30:35.132Z,62.54
2023-04-11T19:33:05.118Z,62.25
2023-04-11T19:35:33.752Z,62.57
2023-04-11T19:38:05.988Z,63.17
2023-04-11T19:40:36.010Z,63.76
2023-04-11T19:43:04.618Z,63.97
2023-04-11T19:45:33.111Z,64.42
2023-04-11T19:48:02.053Z,64.46
2023-04-11T19:50:31.102Z,64.58
2023-04-11T19:53:01.603Z,64.74
2023-04-11T19:55:30.065Z,64.70
2023-04-11T19:58:00.130Z,64.69
2023-04-11T20:00:32.584Z,65.51
2023-04-11T20:03:02.595Z,65.27
2023-04-11T20:05:32.193Z,66.31
2023-04-11T20:08:00.696Z,66.38
2023-04-11T20:10:29.349Z,66.02
2023-04-11T20:12:59.606Z,66.16
2023-04-11T20:15:28.460Z,66.37
2023-04-11T20:18:03.276Z,66.70
2023-04-11T20:20:33.653Z,65.89
2023-04-11T20:23:04.924Z,65.79
2023-04-11T20:25:33.778Z,65.82
2023-04-11T20:28:04.508Z,65.79
2023-04-11T20:30:33.805Z,65.67
2023-04-11T20:33:02.189Z,66.06
2023-04-11T20:35:30.790Z,66.42
2023-04-11T20:37:59.236Z,66.11
2023-04-11T20:40:28.015Z,66.54
2023-04-11T20:42:57.497Z,66.28
2023-04-11T20:45:28.035Z,66.69
2023-04-11T20:47:57.804Z,66.92
2023-04-11T20:50:33.454Z,66.30
2023-04-11T20:53:02.837Z,66.36
2023-04-11T20:55:33.413Z,66.46
2023-04-11T20:58:01.928Z,66.71
2023-04-11T21:00:31.740Z,66.45
2023-04-11T21:03:00.236Z,66.88
2023-04-11T21:05:29.108Z,66.97
2023-04-11T21:07:58.425Z,66.99
2023-04-11T21:10:27.706Z,67.56
2023-04-11T21:13:05.578Z,66.95
2023-04-11T21:15:36.732Z,66.95
2023-04-11T21:18:07.538Z,66.93
2023-04-11T21:20:36.079Z,67.63
2023-04-11T21:23:04.857Z,66.74
2023-04-11T21:25:33.674Z,67.72
2023-04-11T21:28:03.113Z,67.43
2023-04-11T21:30:31.937Z,66.87
2023-04-11T21:33:01.850Z,66.46
2023-04-11T21:35:30.902Z,67.11
2023-04-11T21:38:05.237Z,67.00
2023-04-11T21:40:33.795Z,66.38
2023-04-11T21:43:02.257Z,66.76
2023-04-11T21:45:30.767Z,66.58
2023-04-11T21:47:59.686Z,66.24
2023-04-11T21:50:30.480Z,65.91
2023-04-11T21:52:59.834Z,65.99
2023-04-11T21:55:28.767Z,66.67
2023-04-11T21:57:57.537Z,66.33
2023-04-11T22:00:27.248Z,66.45
2023-04-11T22:02:55.778Z,66.30
2023-04-11T22:05:26.601Z,65.52
2023-04-11T22:08:11.924Z,66.15
2023-04-11T22:10:47.595Z,65.28
2023-04-11T22:13:19.265Z,65.70
2023-04-11T22:15:58.307Z,65.63
2023-04-11T22:18:27.518Z,66.11
2023-04-11T22:20:55.943Z,65.00
2023-04-11T22:23:26.522Z,65.18
2023-04-11T22:25:59.377Z,65.67
2023-04-11T22:28:28.181Z,65.69
2023-04-11T22:30:57.710Z,64.61
2023-04-11T22:33:26.759Z,65.03
2023-04-11T22:35:58.350Z,65.00
2023-04-11T22:38:28.832Z,64.56
2023-04-11T22:40:57.822Z,64.56
2023-04-11T22:43:27.547Z,64.77
2023-04-11T22:45:57.272Z,64.08
2023-04-11T22:48:29.734Z,64.77
2023-04-11T22:51:00.175Z,64.06
2023-04-11T22:53:30.226Z,64.47
2023-04-11T22:55:58.698Z,64.57
2023-04-11T22:58:27.815Z,64.31
2023-04-11T23:00:56.813Z,64.82
2023-04-11T23:03:25.738Z,64.06
2023-04-11T23:05:54.098Z,65.08
2023-04-11T23:08:23.205Z,65.08
2023-04-11T23:10:53.484Z,64.32
2023-04-11T23:13:22.327Z,64.63
2023-04-11T23:15:51.051Z,64.14
2023-04-11T23:18:19.566Z,64.72
2023-04-11T23:20:49.441Z,65.04
2023-04-11T23:23:18.438Z,64.07
2023-04-11T23:25:46.808Z,64.02
2023-04-11T23:28:16.702Z,64.95
2023-04-11T23:30:45.782Z,64.70
2023-04-11T23:33:14.400Z,65.74
2023-04-11T23:35:43.108Z,64.42
2023-04-11T23:38:11.645Z,65.07
2023-04-11T23:40:41.445Z,65.38
2023-04-11T23:43:10.160Z,65.21
2023-04-11T23:45:40.045Z,65.67
2023-04-11T23:48:08.894Z,65.16
2023-04-11T23:50:37.458Z,65.43
2023-04-11T23:53:05.854Z,65.65
2023-04-11T23:55:34.953Z,66.15
2023-04-11T23:58:03.803Z,66.14
